This is the latest recevied weather packets stored in our database for station/object ED3YAB-7. If no packets are shown the sender has not sent any weather packets the latest 10 day(s).
| Time | Temp. | Humidity | Pressure | Rain* | Wind** | Luminosity | Snow |
|---|---|---|---|---|---|---|---|
| 1777840648 | 15° C | 63% | 1020 hPa | - | - | - | - |
| 1777839448 | 15° C | 63% | 1020 hPa | - | - | - | - |
| 1777838257 | 15° C | 63% | 1020.1 hPa | - | - | - | - |
| 1777838247 | 15° C | 63% | 1020.1 hPa | - | - | - | - |
| 1777837055 | 15° C | 63% | 1019.9 hPa | - | - | - | - |
| 1777837047 | 15° C | 63% | 1019.9 hPa | - | - | - | - |
| 1777835847 | 15° C | 62% | 1019.7 hPa | - | - | - | - |
| 1777834655 | 15° C | 62% | 1019.5 hPa | - | - | - | - |
| 1777834647 | 15° C | 62% | 1019.5 hPa | - | - | - | - |
| 1777833447 | 15.56° C | 60% | 1019.5 hPa | - | - | - | - |
| 1777832247 | 15.56° C | 57% | 1019.6 hPa | - | - | - | - |
| 1777831047 | 16.11° C | 55% | 1019.7 hPa | - | - | - | - |
| 1777829847 | 16.11° C | 52% | 1019.6 hPa | - | - | - | - |
| 1777828648 | 17.22° C | 51% | 1019.1 hPa | - | - | - | - |
| 1777827448 | 17.78° C | 53% | 1019.2 hPa | - | - | - | - |
| 1777826248 | 16.67° C | 57% | 1019.1 hPa | - | - | - | - |
| 1777825048 | 16.67° C | 57% | 1019.1 hPa | - | - | - | - |
| 1777823855 | 17.22° C | 55% | 1019 hPa | - | - | - | - |
| 1777823848 | 17.22° C | 55% | 1019 hPa | - | - | - | - |
| 1777822648 | 17.78° C | 52% | 1019.1 hPa | - | - | - | - |
| 1777821455 | 17.78° C | 51% | 1019.1 hPa | - | - | - | - |
| 1777821447 | 17.78° C | 51% | 1019.1 hPa | - | - | - | - |
| 1777820247 | 18.33° C | 50% | 1019 hPa | - | - | - | - |
| 1777819054 | 18.89° C | 48% | 1019.1 hPa | - | - | - | - |
| 1777817854 | 19.44° C | 46% | 1019.4 hPa | - | - | - | - |
* Rain since midnight (hover to see other rain measurements)
** Current wind speed in m/s (hover to see current wind gust speed)